sensor_id;sensor_type;location;lat;lon;timestamp;temperature;humidity
7720;DHT22;3902;49.474;8.616;2024-01-30T00:01:15;4.90;99.90
7720;DHT22;3902;49.474;8.616;2024-01-30T00:03:41;4.90;99.90
7720;DHT22;3902;49.474;8.616;2024-01-30T00:06:07;5.00;99.90
7720;DHT22;3902;49.474;8.616;2024-01-30T00:08:33;5.00;99.90
7720;DHT22;3902;49.474;8.616;2024-01-30T00:10:59;5.00;99.90
7720;DHT22;3902;49.474;8.616;2024-01-30T00:13:24;5.00;99.90
7720;DHT22;3902;49.474;8.616;2024-01-30T00:15:50;4.90;99.90
7720;DHT22;3902;49.474;8.616;2024-01-30T00:18:15;5.00;99.90
7720;DHT22;3902;49.474;8.616;2024-01-30T00:20:41;5.00;99.90
7720;DHT22;3902;49.474;8.616;2024-01-30T00:23:08;5.00;99.90
7720;DHT22;3902;49.474;8.616;2024-01-30T00:25:33;5.00;99.90
7720;DHT22;3902;49.474;8.616;2024-01-30T00:27:59;5.00;99.90
7720;DHT22;3902;49.474;8.616;2024-01-30T00:30:24;4.90;99.90
7720;DHT22;3902;49.474;8.616;2024-01-30T00:32:50;4.90;99.90
7720;DHT22;3902;49.474;8.616;2024-01-30T00:35:16;4.90;99.90
7720;DHT22;3902;49.474;8.616;2024-01-30T00:37:41;4.90;99.90
7720;DHT22;3902;49.474;8.616;2024-01-30T00:40:07;4.90;99.90
7720;DHT22;3902;49.474;8.616;2024-01-30T00:42:33;4.90;99.90
7720;DHT22;3902;49.474;8.616;2024-01-30T00:44:58;4.90;99.90
7720;DHT22;3902;49.474;8.616;2024-01-30T00:47:24;4.90;99.90
7720;DHT22;3902;49.474;8.616;2024-01-30T00:49:49;4.90;99.90
7720;DHT22;3902;49.474;8.616;2024-01-30T00:52:15;4.90;99.90
7720;DHT22;3902;49.474;8.616;2024-01-30T00:54:41;4.80;99.90
7720;DHT22;3902;49.474;8.616;2024-01-30T00:57:07;4.80;99.90
7720;DHT22;3902;49.474;8.616;2024-01-30T00:59:32;4.80;99.90
7720;DHT22;3902;49.474;8.616;2024-01-30T01:01:58;4.80;99.90
7720;DHT22;3902;49.474;8.616;2024-01-30T01:04:23;4.80;99.90
7720;DHT22;3902;49.474;8.616;2024-01-30T01:06:49;4.80;99.90
7720;DHT22;3902;49.474;8.616;2024-01-30T01:09:15;4.80;99.90
7720;DHT22;3902;49.474;8.616;2024-01-30T01:11:40;4.80;99.90
7720;DHT22;3902;49.474;8.616;2024-01-30T01:14:06;4.80;99.90
7720;DHT22;3902;49.474;8.616;2024-01-30T01:16:32;4.80;99.90
7720;DHT22;3902;49.474;8.616;2024-01-30T01:18:58;4.80;99.90
7720;DHT22;3902;49.474;8.616;2024-01-30T01:21:25;4.80;99.90
7720;DHT22;3902;49.474;8.616;2024-01-30T01:23:51;4.80;99.90
7720;DHT22;3902;49.474;8.616;2024-01-30T01:26:16;4.70;99.90
7720;DHT22;3902;49.474;8.616;2024-01-30T01:28:42;4.80;99.90
7720;DHT22;3902;49.474;8.616;2024-01-30T01:31:08;4.80;99.90
7720;DHT22;3902;49.474;8.616;2024-01-30T01:33:33;4.80;99.90
7720;DHT22;3902;49.474;8.616;2024-01-30T01:36:00;4.80;99.90
7720;DHT22;3902;49.474;8.616;2024-01-30T01:38:28;4.80;99.90
7720;DHT22;3902;49.474;8.616;2024-01-30T01:40:53;4.80;99.90
7720;DHT22;3902;49.474;8.616;2024-01-30T01:43:19;4.80;99.90
7720;DHT22;3902;49.474;8.616;2024-01-30T01:45:45;4.70;99.90
7720;DHT22;3902;49.474;8.616;2024-01-30T01:48:11;4.70;99.90
7720;DHT22;3902;49.474;8.616;2024-01-30T01:50:38;4.70;99.90
7720;DHT22;3902;49.474;8.616;2024-01-30T01:53:07;4.60;99.90
7720;DHT22;3902;49.474;8.616;2024-01-30T01:55:34;4.70;99.90
7720;DHT22;3902;49.474;8.616;2024-01-30T01:58:00;4.70;99.90
7720;DHT22;3902;49.474;8.616;2024-01-30T02:00:26;4.70;99.90
7720;DHT22;3902;49.474;8.616;2024-01-30T02:02:53;4.70;99.90
7720;DHT22;3902;49.474;8.616;2024-01-30T02:05:20;4.70;99.90
7720;DHT22;3902;49.474;8.616;2024-01-30T02:07:46;4.70;99.90
7720;DHT22;3902;49.474;8.616;2024-01-30T02:10:12;4.70;99.90
7720;DHT22;3902;49.474;8.616;2024-01-30T02:12:38;4.70;99.90
7720;DHT22;3902;49.474;8.616;2024-01-30T02:15:04;4.70;99.90
7720;DHT22;3902;49.474;8.616;2024-01-30T02:17:30;4.70;99.90
7720;DHT22;3902;49.474;8.616;2024-01-30T02:19:56;4.80;99.90
7720;DHT22;3902;49.474;8.616;2024-01-30T02:22:22;4.80;99.90
7720;DHT22;3902;49.474;8.616;2024-01-30T02:24:48;4.80;99.90
7720;DHT22;3902;49.474;8.616;2024-01-30T02:27:14;4.80;99.90
7720;DHT22;3902;49.474;8.616;2024-01-30T02:29:39;4.80;99.90
7720;DHT22;3902;49.474;8.616;2024-01-30T02:32:05;4.80;99.90
7720;DHT22;3902;49.474;8.616;2024-01-30T02:34:31;4.80;99.90
7720;DHT22;3902;49.474;8.616;2024-01-30T02:36:57;4.90;99.90
7720;DHT22;3902;49.474;8.616;2024-01-30T02:39:22;4.90;99.90
7720;DHT22;3902;49.474;8.616;2024-01-30T02:41:48;4.90;99.90
7720;DHT22;3902;49.474;8.616;2024-01-30T02:44:13;4.90;99.90
7720;DHT22;3902;49.474;8.616;2024-01-30T02:46:39;4.90;99.90
7720;DHT22;3902;49.474;8.616;2024-01-30T02:49:04;4.90;99.90
7720;DHT22;3902;49.474;8.616;2024-01-30T02:51:30;5.00;99.90
7720;DHT22;3902;49.474;8.616;2024-01-30T02:53:55;5.00;99.90
7720;DHT22;3902;49.474;8.616;2024-01-30T02:56:21;5.00;99.90
7720;DHT22;3902;49.474;8.616;2024-01-30T02:58:47;5.00;99.90
7720;DHT22;3902;49.474;8.616;2024-01-30T03:01:12;5.00;99.90
7720;DHT22;3902;49.474;8.616;2024-01-30T03:03:38;5.00;99.90
7720;DHT22;3902;49.474;8.616;2024-01-30T03:06:05;5.00;99.90
7720;DHT22;3902;49.474;8.616;2024-01-30T03:08:30;5.00;99.90
7720;DHT22;3902;49.474;8.616;2024-01-30T03:10:56;5.00;99.90
7720;DHT22;3902;49.474;8.616;2024-01-30T03:13:21;5.00;99.90
7720;DHT22;3902;49.474;8.616;2024-01-30T03:15:49;5.00;99.90
7720;DHT22;3902;49.474;8.616;2024-01-30T03:18:14;5.00;99.90
7720;DHT22;3902;49.474;8.616;2024-01-30T03:20:40;5.00;99.90
7720;DHT22;3902;49.474;8.616;2024-01-30T03:23:05;5.00;99.90
7720;DHT22;3902;49.474;8.616;2024-01-30T03:25:30;5.10;99.90
7720;DHT22;3902;49.474;8.616;2024-01-30T03:27:56;5.10;99.90
7720;DHT22;3902;49.474;8.616;2024-01-30T03:30:21;5.10;99.90
7720;DHT22;3902;49.474;8.616;2024-01-30T03:32:47;5.10;99.90
7720;DHT22;3902;49.474;8.616;2024-01-30T03:35:13;5.10;99.90
7720;DHT22;3902;49.474;8.616;2024-01-30T03:37:38;5.10;99.90
7720;DHT22;3902;49.474;8.616;2024-01-30T03:40:04;5.10;99.90
7720;DHT22;3902;49.474;8.616;2024-01-30T03:42:30;5.10;99.90
7720;DHT22;3902;49.474;8.616;2024-01-30T03:44:56;5.10;99.90
7720;DHT22;3902;49.474;8.616;2024-01-30T03:47:22;5.10;99.90
7720;DHT22;3902;49.474;8.616;2024-01-30T03:49:47;5.10;99.90
7720;DHT22;3902;49.474;8.616;2024-01-30T03:52:13;5.10;99.90
7720;DHT22;3902;49.474;8.616;2024-01-30T03:54:39;5.10;99.90
7720;DHT22;3902;49.474;8.616;2024-01-30T03:57:04;5.10;99.90
7720;DHT22;3902;49.474;8.616;2024-01-30T03:59:30;5.10;99.90
7720;DHT22;3902;49.474;8.616;2024-01-30T04:01:56;5.10;99.90
7720;DHT22;3902;49.474;8.616;2024-01-30T04:04:21;5.10;99.90
7720;DHT22;3902;49.474;8.616;2024-01-30T04:06:47;5.10;99.90
7720;DHT22;3902;49.474;8.616;2024-01-30T04:09:13;5.10;99.90
7720;DHT22;3902;49.474;8.616;2024-01-30T04:11:41;5.10;99.90
7720;DHT22;3902;49.474;8.616;2024-01-30T04:14:07;5.10;99.90
7720;DHT22;3902;49.474;8.616;2024-01-30T04:16:33;5.10;99.90
7720;DHT22;3902;49.474;8.616;2024-01-30T04:19:00;5.10;99.90
7720;DHT22;3902;49.474;8.616;2024-01-30T04:21:25;5.10;99.90
7720;DHT22;3902;49.474;8.616;2024-01-30T04:23:51;5.10;99.90
7720;DHT22;3902;49.474;8.616;2024-01-30T04:26:17;5.10;99.90
7720;DHT22;3902;49.474;8.616;2024-01-30T04:28:44;5.10;99.90
7720;DHT22;3902;49.474;8.616;2024-01-30T04:31:10;5.10;99.90
7720;DHT22;3902;49.474;8.616;2024-01-30T04:33:36;5.10;99.90
7720;DHT22;3902;49.474;8.616;2024-01-30T04:36:02;5.00;99.90
7720;DHT22;3902;49.474;8.616;2024-01-30T04:38:28;5.00;99.90
7720;DHT22;3902;49.474;8.616;2024-01-30T04:40:53;5.10;99.90
7720;DHT22;3902;49.474;8.616;2024-01-30T04:43:19;5.10;99.90
7720;DHT22;3902;49.474;8.616;2024-01-30T04:45:45;5.10;99.90
7720;DHT22;3902;49.474;8.616;2024-01-30T04:48:10;5.20;99.90
7720;DHT22;3902;49.474;8.616;2024-01-30T04:50:36;5.20;99.90
7720;DHT22;3902;49.474;8.616;2024-01-30T04:53:01;5.20;99.90
7720;DHT22;3902;49.474;8.616;2024-01-30T04:55:27;5.20;99.90
7720;DHT22;3902;49.474;8.616;2024-01-30T04:57:52;5.30;99.90
7720;DHT22;3902;49.474;8.616;2024-01-30T05:00:18;5.30;99.90
7720;DHT22;3902;49.474;8.616;2024-01-30T05:02:43;5.30;99.90
7720;DHT22;3902;49.474;8.616;2024-01-30T05:05:09;5.30;99.90
7720;DHT22;3902;49.474;8.616;2024-01-30T05:07:34;5.40;99.90
7720;DHT22;3902;49.474;8.616;2024-01-30T05:10:00;5.40;99.90
7720;DHT22;3902;49.474;8.616;2024-01-30T05:12:26;5.40;99.90
7720;DHT22;3902;49.474;8.616;2024-01-30T05:14:52;5.40;99.90
7720;DHT22;3902;49.474;8.616;2024-01-30T05:17:17;5.50;99.90
7720;DHT22;3902;49.474;8.616;2024-01-30T05:19:43;5.40;99.90
7720;DHT22;3902;49.474;8.616;2024-01-30T05:22:09;5.50;99.90
7720;DHT22;3902;49.474;8.616;2024-01-30T05:24:35;5.50;99.90
7720;DHT22;3902;49.474;8.616;2024-01-30T05:27:01;5.50;99.90
7720;DHT22;3902;49.474;8.616;2024-01-30T05:29:27;5.50;99.90
7720;DHT22;3902;49.474;8.616;2024-01-30T05:31:53;5.50;99.90
7720;DHT22;3902;49.474;8.616;2024-01-30T05:34:18;5.60;99.90
7720;DHT22;3902;49.474;8.616;2024-01-30T05:36:44;5.60;99.90
7720;DHT22;3902;49.474;8.616;2024-01-30T05:39:09;5.60;99.90
7720;DHT22;3902;49.474;8.616;2024-01-30T05:41:35;5.60;99.90
7720;DHT22;3902;49.474;8.616;2024-01-30T05:44:01;5.60;99.90
7720;DHT22;3902;49.474;8.616;2024-01-30T05:46:27;5.60;99.90
7720;DHT22;3902;49.474;8.616;2024-01-30T05:48:52;5.60;99.90
7720;DHT22;3902;49.474;8.616;2024-01-30T05:51:18;5.60;99.90
7720;DHT22;3902;49.474;8.616;2024-01-30T05:53:43;5.60;99.90
7720;DHT22;3902;49.474;8.616;2024-01-30T05:56:09;5.60;99.90
7720;DHT22;3902;49.474;8.616;2024-01-30T05:58:34;5.60;99.90
7720;DHT22;3902;49.474;8.616;2024-01-30T06:01:00;5.50;99.90
7720;DHT22;3902;49.474;8.616;2024-01-30T06:03:26;5.60;99.90
7720;DHT22;3902;49.474;8.616;2024-01-30T06:05:51;5.60;99.90
7720;DHT22;3902;49.474;8.616;2024-01-30T06:08:17;5.60;99.90
7720;DHT22;3902;49.474;8.616;2024-01-30T06:10:43;5.60;99.90
7720;DHT22;3902;49.474;8.616;2024-01-30T06:13:09;5.60;99.90
7720;DHT22;3902;49.474;8.616;2024-01-30T06:15:34;5.60;99.90
7720;DHT22;3902;49.474;8.616;2024-01-30T06:18:00;5.60;99.90
7720;DHT22;3902;49.474;8.616;2024-01-30T06:20:25;5.60;99.90
7720;DHT22;3902;49.474;8.616;2024-01-30T06:22:51;5.60;99.90
7720;DHT22;3902;49.474;8.616;2024-01-30T06:25:16;5.60;99.90
7720;DHT22;3902;49.474;8.616;2024-01-30T06:27:42;5.60;99.90
7720;DHT22;3902;49.474;8.616;2024-01-30T06:30:08;5.70;99.90
7720;DHT22;3902;49.474;8.616;2024-01-30T06:32:35;5.70;99.90
7720;DHT22;3902;49.474;8.616;2024-01-30T06:35:01;5.70;99.90
7720;DHT22;3902;49.474;8.616;2024-01-30T06:37:27;5.70;99.90
7720;DHT22;3902;49.474;8.616;2024-01-30T06:39:52;5.70;99.90
7720;DHT22;3902;49.474;8.616;2024-01-30T06:42:18;5.70;99.90
7720;DHT22;3902;49.474;8.616;2024-01-30T06:44:44;5.80;99.90
7720;DHT22;3902;49.474;8.616;2024-01-30T06:47:10;5.80;99.90
7720;DHT22;3902;49.474;8.616;2024-01-30T06:49:35;5.80;99.90
7720;DHT22;3902;49.474;8.616;2024-01-30T06:52:05;5.80;99.90
7720;DHT22;3902;49.474;8.616;2024-01-30T06:54:30;5.80;99.90
7720;DHT22;3902;49.474;8.616;2024-01-30T06:56:56;5.80;99.90
7720;DHT22;3902;49.474;8.616;2024-01-30T06:59:22;5.90;99.90
7720;DHT22;3902;49.474;8.616;2024-01-30T07:01:47;5.90;99.90
7720;DHT22;3902;49.474;8.616;2024-01-30T07:04:13;5.90;99.90
7720;DHT22;3902;49.474;8.616;2024-01-30T07:06:38;5.90;99.90
7720;DHT22;3902;49.474;8.616;2024-01-30T07:09:04;5.90;99.90
7720;DHT22;3902;49.474;8.616;2024-01-30T07:11:30;5.90;99.90
7720;DHT22;3902;49.474;8.616;2024-01-30T07:13:56;5.90;99.90
7720;DHT22;3902;49.474;8.616;2024-01-30T07:16:21;5.90;99.90
7720;DHT22;3902;49.474;8.616;2024-01-30T07:18:48;5.90;99.90
7720;DHT22;3902;49.474;8.616;2024-01-30T07:21:13;5.90;99.90
7720;DHT22;3902;49.474;8.616;2024-01-30T07:23:39;5.90;99.90
7720;DHT22;3902;49.474;8.616;2024-01-30T07:26:05;5.90;99.90
7720;DHT22;3902;49.474;8.616;2024-01-30T07:28:32;5.90;99.90
7720;DHT22;3902;49.474;8.616;2024-01-30T07:30:58;5.90;99.90
7720;DHT22;3902;49.474;8.616;2024-01-30T07:33:23;6.00;99.90
7720;DHT22;3902;49.474;8.616;2024-01-30T07:35:51;6.00;99.90
7720;DHT22;3902;49.474;8.616;2024-01-30T07:38:17;6.00;99.90
7720;DHT22;3902;49.474;8.616;2024-01-30T07:40:43;6.00;99.90
7720;DHT22;3902;49.474;8.616;2024-01-30T07:43:08;6.00;99.90
7720;DHT22;3902;49.474;8.616;2024-01-30T07:45:34;6.10;99.90
7720;DHT22;3902;49.474;8.616;2024-01-30T07:48:00;6.10;99.90
7720;DHT22;3902;49.474;8.616;2024-01-30T07:50:26;6.10;99.90
7720;DHT22;3902;49.474;8.616;2024-01-30T07:52:52;6.10;99.90
7720;DHT22;3902;49.474;8.616;2024-01-30T07:55:20;6.20;99.90
7720;DHT22;3902;49.474;8.616;2024-01-30T07:57:52;6.20;99.90
7720;DHT22;3902;49.474;8.616;2024-01-30T08:00:18;6.20;99.90
7720;DHT22;3902;49.474;8.616;2024-01-30T08:02:45;6.20;99.90
7720;DHT22;3902;49.474;8.616;2024-01-30T08:05:11;6.20;99.90
7720;DHT22;3902;49.474;8.616;2024-01-30T08:07:37;6.20;99.90
7720;DHT22;3902;49.474;8.616;2024-01-30T08:10:02;6.30;99.90
7720;DHT22;3902;49.474;8.616;2024-01-30T08:12:28;6.30;99.90
7720;DHT22;3902;49.474;8.616;2024-01-30T08:14:54;6.40;99.90
7720;DHT22;3902;49.474;8.616;2024-01-30T08:17:20;6.40;99.90
7720;DHT22;3902;49.474;8.616;2024-01-30T08:19:45;6.40;99.90
7720;DHT22;3902;49.474;8.616;2024-01-30T08:22:12;6.50;99.90
7720;DHT22;3902;49.474;8.616;2024-01-30T08:24:37;6.50;99.90
7720;DHT22;3902;49.474;8.616;2024-01-30T08:27:03;6.50;99.90
7720;DHT22;3902;49.474;8.616;2024-01-30T08:29:30;6.60;99.90
7720;DHT22;3902;49.474;8.616;2024-01-30T08:31:56;6.60;99.90
7720;DHT22;3902;49.474;8.616;2024-01-30T08:34:21;6.60;99.90
7720;DHT22;3902;49.474;8.616;2024-01-30T08:36:47;6.70;99.90
7720;DHT22;3902;49.474;8.616;2024-01-30T08:39:13;6.70;99.90
7720;DHT22;3902;49.474;8.616;2024-01-30T08:41:39;6.80;99.90
7720;DHT22;3902;49.474;8.616;2024-01-30T08:44:04;6.80;99.90
7720;DHT22;3902;49.474;8.616;2024-01-30T08:46:30;6.90;99.90
7720;DHT22;3902;49.474;8.616;2024-01-30T08:48:56;7.00;99.90
7720;DHT22;3902;49.474;8.616;2024-01-30T08:51:21;7.00;99.90
7720;DHT22;3902;49.474;8.616;2024-01-30T08:53:47;7.00;99.90
7720;DHT22;3902;49.474;8.616;2024-01-30T08:56:12;7.10;99.90
7720;DHT22;3902;49.474;8.616;2024-01-30T08:58:39;7.10;99.90
7720;DHT22;3902;49.474;8.616;2024-01-30T09:01:04;7.20;99.90
7720;DHT22;3902;49.474;8.616;2024-01-30T09:03:31;7.20;99.90
7720;DHT22;3902;49.474;8.616;2024-01-30T09:05:56;7.30;99.90
7720;DHT22;3902;49.474;8.616;2024-01-30T09:08:22;7.30;99.90
7720;DHT22;3902;49.474;8.616;2024-01-30T09:10:47;7.30;99.90
7720;DHT22;3902;49.474;8.616;2024-01-30T09:13:15;7.30;99.90
7720;DHT22;3902;49.474;8.616;2024-01-30T09:15:41;7.40;99.90
7720;DHT22;3902;49.474;8.616;2024-01-30T09:18:07;7.40;99.90
7720;DHT22;3902;49.474;8.616;2024-01-30T09:20:32;7.40;99.90
7720;DHT22;3902;49.474;8.616;2024-01-30T09:22:58;7.40;99.90
7720;DHT22;3902;49.474;8.616;2024-01-30T09:25:23;7.50;99.90
7720;DHT22;3902;49.474;8.616;2024-01-30T09:27:48;7.50;99.90
7720;DHT22;3902;49.474;8.616;2024-01-30T09:30:14;7.50;99.90
7720;DHT22;3902;49.474;8.616;2024-01-30T09:32:40;7.50;99.90
7720;DHT22;3902;49.474;8.616;2024-01-30T09:35:06;7.60;99.90
7720;DHT22;3902;49.474;8.616;2024-01-30T09:37:31;7.60;99.90
7720;DHT22;3902;49.474;8.616;2024-01-30T09:39:58;7.60;99.90
7720;DHT22;3902;49.474;8.616;2024-01-30T09:42:33;7.70;99.90
7720;DHT22;3902;49.474;8.616;2024-01-30T09:44:59;7.70;99.90
7720;DHT22;3902;49.474;8.616;2024-01-30T09:47:26;7.80;99.90
7720;DHT22;3902;49.474;8.616;2024-01-30T09:49:51;7.80;99.90
7720;DHT22;3902;49.474;8.616;2024-01-30T09:52:17;7.90;99.90
7720;DHT22;3902;49.474;8.616;2024-01-30T09:54:45;7.90;99.90
7720;DHT22;3902;49.474;8.616;2024-01-30T09:57:11;8.00;99.90
7720;DHT22;3902;49.474;8.616;2024-01-30T09:59:37;8.00;99.90
7720;DHT22;3902;49.474;8.616;2024-01-30T10:02:02;8.10;99.90
7720;DHT22;3902;49.474;8.616;2024-01-30T10:04:30;8.10;99.90
7720;DHT22;3902;49.474;8.616;2024-01-30T10:06:55;8.20;99.90
7720;DHT22;3902;49.474;8.616;2024-01-30T10:09:21;8.20;99.90
7720;DHT22;3902;49.474;8.616;2024-01-30T10:11:48;8.30;99.90
7720;DHT22;3902;49.474;8.616;2024-01-30T10:14:14;8.30;99.90
7720;DHT22;3902;49.474;8.616;2024-01-30T10:16:39;8.40;99.90
7720;DHT22;3902;49.474;8.616;2024-01-30T10:19:05;8.40;99.90
7720;DHT22;3902;49.474;8.616;2024-01-30T10:21:30;8.40;99.90
7720;DHT22;3902;49.474;8.616;2024-01-30T10:23:56;8.50;99.90
7720;DHT22;3902;49.474;8.616;2024-01-30T10:26:21;8.50;99.90
7720;DHT22;3902;49.474;8.616;2024-01-30T10:28:48;8.50;99.90
7720;DHT22;3902;49.474;8.616;2024-01-30T10:31:17;8.60;99.90
7720;DHT22;3902;49.474;8.616;2024-01-30T10:33:44;8.60;99.90
7720;DHT22;3902;49.474;8.616;2024-01-30T10:36:10;8.70;99.90
7720;DHT22;3902;49.474;8.616;2024-01-30T10:38:39;8.70;99.90
7720;DHT22;3902;49.474;8.616;2024-01-30T10:41:08;8.80;99.90
7720;DHT22;3902;49.474;8.616;2024-01-30T10:43:41;8.80;99.90
7720;DHT22;3902;49.474;8.616;2024-01-30T10:46:20;8.80;99.90
7720;DHT22;3902;49.474;8.616;2024-01-30T10:48:56;8.80;99.90
7720;DHT22;3902;49.474;8.616;2024-01-30T10:51:24;8.90;99.90
7720;DHT22;3902;49.474;8.616;2024-01-30T10:53:51;8.90;99.90
7720;DHT22;3902;49.474;8.616;2024-01-30T10:56:18;9.00;99.90
7720;DHT22;3902;49.474;8.616;2024-01-30T10:58:46;9.00;99.90
7720;DHT22;3902;49.474;8.616;2024-01-30T11:01:12;9.00;99.90
7720;DHT22;3902;49.474;8.616;2024-01-30T11:03:38;9.00;99.90
7720;DHT22;3902;49.474;8.616;2024-01-30T11:06:04;9.10;99.90
7720;DHT22;3902;49.474;8.616;2024-01-30T11:08:32;9.20;99.90
7720;DHT22;3902;49.474;8.616;2024-01-30T11:10:58;9.20;99.90
7720;DHT22;3902;49.474;8.616;2024-01-30T11:13:30;9.20;99.90
7720;DHT22;3902;49.474;8.616;2024-01-30T11:16:03;9.30;99.90
7720;DHT22;3902;49.474;8.616;2024-01-30T11:18:30;9.40;99.90
7720;DHT22;3902;49.474;8.616;2024-01-30T11:20:59;9.40;99.90
7720;DHT22;3902;49.474;8.616;2024-01-30T11:23:27;9.50;99.90
7720;DHT22;3902;49.474;8.616;2024-01-30T11:25:54;9.70;99.90
7720;DHT22;3902;49.474;8.616;2024-01-30T11:28:21;9.70;99.90
7720;DHT22;3902;49.474;8.616;2024-01-30T11:30:47;9.80;99.90
7720;DHT22;3902;49.474;8.616;2024-01-30T11:33:13;9.90;99.90
7720;DHT22;3902;49.474;8.616;2024-01-30T11:35:41;9.90;99.90
7720;DHT22;3902;49.474;8.616;2024-01-30T11:38:09;9.90;99.90
7720;DHT22;3902;49.474;8.616;2024-01-30T11:40:36;9.90;99.90
7720;DHT22;3902;49.474;8.616;2024-01-30T11:43:03;9.90;99.90
7720;DHT22;3902;49.474;8.616;2024-01-30T11:45:30;9.90;99.90
7720;DHT22;3902;49.474;8.616;2024-01-30T11:47:56;10.00;99.90
7720;DHT22;3902;49.474;8.616;2024-01-30T11:50:23;10.10;99.90
7720;DHT22;3902;49.474;8.616;2024-01-30T11:52:48;10.10;99.90
7720;DHT22;3902;49.474;8.616;2024-01-30T11:55:14;10.10;99.90
7720;DHT22;3902;49.474;8.616;2024-01-30T11:57:40;10.10;99.90
7720;DHT22;3902;49.474;8.616;2024-01-30T12:00:13;10.10;99.90
7720;DHT22;3902;49.474;8.616;2024-01-30T12:02:40;10.10;99.90
7720;DHT22;3902;49.474;8.616;2024-01-30T12:05:06;10.10;99.90
7720;DHT22;3902;49.474;8.616;2024-01-30T12:07:32;10.00;99.90
7720;DHT22;3902;49.474;8.616;2024-01-30T12:09:58;10.10;99.90
7720;DHT22;3902;49.474;8.616;2024-01-30T12:12:27;10.10;99.90
7720;DHT22;3902;49.474;8.616;2024-01-30T12:14:54;10.00;99.90
7720;DHT22;3902;49.474;8.616;2024-01-30T12:17:33;10.10;99.90
7720;DHT22;3902;49.474;8.616;2024-01-30T12:20:41;10.10;99.90
7720;DHT22;3902;49.474;8.616;2024-01-30T12:22:59;10.20;99.90
7720;DHT22;3902;49.474;8.616;2024-01-30T12:25:25;10.20;99.90
7720;DHT22;3902;49.474;8.616;2024-01-30T12:27:50;10.20;99.90
7720;DHT22;3902;49.474;8.616;2024-01-30T12:30:18;10.30;99.90
7720;DHT22;3902;49.474;8.616;2024-01-30T12:32:45;10.30;99.90
7720;DHT22;3902;49.474;8.616;2024-01-30T12:35:13;10.30;99.90
7720;DHT22;3902;49.474;8.616;2024-01-30T12:37:39;10.40;99.90
7720;DHT22;3902;49.474;8.616;2024-01-30T12:40:05;10.40;99.90
7720;DHT22;3902;49.474;8.616;2024-01-30T12:42:35;10.50;99.90
7720;DHT22;3902;49.474;8.616;2024-01-30T12:45:02;10.60;99.90
7720;DHT22;3902;49.474;8.616;2024-01-30T12:47:28;10.80;99.90
7720;DHT22;3902;49.474;8.616;2024-01-30T12:49:53;10.90;99.90
7720;DHT22;3902;49.474;8.616;2024-01-30T12:52:20;11.00;99.90
7720;DHT22;3902;49.474;8.616;2024-01-30T12:54:46;11.10;99.90
7720;DHT22;3902;49.474;8.616;2024-01-30T12:57:12;11.20;99.90
7720;DHT22;3902;49.474;8.616;2024-01-30T12:59:37;11.30;99.90
7720;DHT22;3902;49.474;8.616;2024-01-30T13:02:04;11.40;99.90
7720;DHT22;3902;49.474;8.616;2024-01-30T13:04:29;11.50;99.90
7720;DHT22;3902;49.474;8.616;2024-01-30T13:06:55;11.40;99.90
7720;DHT22;3902;49.474;8.616;2024-01-30T13:09:21;11.40;99.90
7720;DHT22;3902;49.474;8.616;2024-01-30T13:11:47;11.40;99.90
7720;DHT22;3902;49.474;8.616;2024-01-30T13:14:12;11.50;99.90
7720;DHT22;3902;49.474;8.616;2024-01-30T13:16:38;11.70;99.90
7720;DHT22;3902;49.474;8.616;2024-01-30T13:19:03;11.80;99.90
7720;DHT22;3902;49.474;8.616;2024-01-30T13:21:29;11.90;99.90
7720;DHT22;3902;49.474;8.616;2024-01-30T13:23:55;12.00;99.90
7720;DHT22;3902;49.474;8.616;2024-01-30T13:26:21;12.00;99.90
7720;DHT22;3902;49.474;8.616;2024-01-30T13:28:47;12.00;99.90
7720;DHT22;3902;49.474;8.616;2024-01-30T13:31:16;12.00;99.90
7720;DHT22;3902;49.474;8.616;2024-01-30T13:33:42;11.90;99.90
7720;DHT22;3902;49.474;8.616;2024-01-30T13:36:08;11.90;99.90
7720;DHT22;3902;49.474;8.616;2024-01-30T13:38:34;11.90;99.90
7720;DHT22;3902;49.474;8.616;2024-01-30T13:41:00;11.90;99.90
7720;DHT22;3902;49.474;8.616;2024-01-30T13:43:25;11.80;99.90
7720;DHT22;3902;49.474;8.616;2024-01-30T13:45:51;11.80;99.90
7720;DHT22;3902;49.474;8.616;2024-01-30T13:48:17;11.70;99.90
7720;DHT22;3902;49.474;8.616;2024-01-30T13:50:43;11.70;99.90
7720;DHT22;3902;49.474;8.616;2024-01-30T13:53:08;11.60;99.90
7720;DHT22;3902;49.474;8.616;2024-01-30T13:55:34;11.60;99.90
7720;DHT22;3902;49.474;8.616;2024-01-30T13:57:59;11.60;99.90
7720;DHT22;3902;49.474;8.616;2024-01-30T14:00:27;11.60;99.90
7720;DHT22;3902;49.474;8.616;2024-01-30T14:02:52;11.60;99.90
7720;DHT22;3902;49.474;8.616;2024-01-30T14:05:20;11.60;99.90
7720;DHT22;3902;49.474;8.616;2024-01-30T14:07:46;11.50;99.90
7720;DHT22;3902;49.474;8.616;2024-01-30T14:10:12;11.50;99.90
7720;DHT22;3902;49.474;8.616;2024-01-30T14:12:38;11.50;99.90
7720;DHT22;3902;49.474;8.616;2024-01-30T14:15:04;11.40;99.90
7720;DHT22;3902;49.474;8.616;2024-01-30T14:17:29;11.50;99.90
7720;DHT22;3902;49.474;8.616;2024-01-30T14:19:55;11.40;99.90
7720;DHT22;3902;49.474;8.616;2024-01-30T14:22:20;11.40;99.90
7720;DHT22;3902;49.474;8.616;2024-01-30T14:24:46;11.30;99.90
7720;DHT22;3902;49.474;8.616;2024-01-30T14:27:12;11.30;99.90
7720;DHT22;3902;49.474;8.616;2024-01-30T14:29:37;11.30;99.90
7720;DHT22;3902;49.474;8.616;2024-01-30T14:32:03;11.30;99.90
7720;DHT22;3902;49.474;8.616;2024-01-30T14:34:29;11.30;99.90
7720;DHT22;3902;49.474;8.616;2024-01-30T14:36:55;11.30;99.90
7720;DHT22;3902;49.474;8.616;2024-01-30T14:39:21;11.20;99.90
7720;DHT22;3902;49.474;8.616;2024-01-30T14:41:46;11.20;99.90
7720;DHT22;3902;49.474;8.616;2024-01-30T14:44:12;11.20;99.90
7720;DHT22;3902;49.474;8.616;2024-01-30T14:46:37;11.10;99.90
7720;DHT22;3902;49.474;8.616;2024-01-30T14:49:03;11.10;99.90
7720;DHT22;3902;49.474;8.616;2024-01-30T14:51:33;11.10;99.90
7720;DHT22;3902;49.474;8.616;2024-01-30T14:53:59;11.10;99.90
7720;DHT22;3902;49.474;8.616;2024-01-30T14:56:25;11.00;99.90
7720;DHT22;3902;49.474;8.616;2024-01-30T14:58:51;11.00;99.90
7720;DHT22;3902;49.474;8.616;2024-01-30T15:01:17;11.00;99.90
7720;DHT22;3902;49.474;8.616;2024-01-30T15:03:44;11.10;99.90
7720;DHT22;3902;49.474;8.616;2024-01-30T15:06:11;11.00;99.90
7720;DHT22;3902;49.474;8.616;2024-01-30T15:08:37;11.00;99.90
7720;DHT22;3902;49.474;8.616;2024-01-30T15:11:03;11.00;99.90
7720;DHT22;3902;49.474;8.616;2024-01-30T15:13:29;10.90;99.90
7720;DHT22;3902;49.474;8.616;2024-01-30T15:15:55;10.90;99.90
7720;DHT22;3902;49.474;8.616;2024-01-30T15:18:20;10.90;99.90
7720;DHT22;3902;49.474;8.616;2024-01-30T15:20:46;10.90;99.90
7720;DHT22;3902;49.474;8.616;2024-01-30T15:23:12;10.90;99.90
7720;DHT22;3902;49.474;8.616;2024-01-30T15:25:37;10.90;99.90
7720;DHT22;3902;49.474;8.616;2024-01-30T15:28:03;10.90;99.90
7720;DHT22;3902;49.474;8.616;2024-01-30T15:30:28;10.80;99.90
7720;DHT22;3902;49.474;8.616;2024-01-30T15:32:54;10.80;99.90
7720;DHT22;3902;49.474;8.616;2024-01-30T15:35:19;10.80;99.90
7720;DHT22;3902;49.474;8.616;2024-01-30T15:37:45;10.80;99.90
7720;DHT22;3902;49.474;8.616;2024-01-30T15:40:11;10.80;99.90
7720;DHT22;3902;49.474;8.616;2024-01-30T15:42:36;10.80;99.90
7720;DHT22;3902;49.474;8.616;2024-01-30T15:45:02;10.80;99.90
7720;DHT22;3902;49.474;8.616;2024-01-30T15:47:28;10.80;99.90
7720;DHT22;3902;49.474;8.616;2024-01-30T15:49:53;10.70;99.90
7720;DHT22;3902;49.474;8.616;2024-01-30T15:52:19;10.70;99.90
7720;DHT22;3902;49.474;8.616;2024-01-30T15:54:46;10.70;99.90
7720;DHT22;3902;49.474;8.616;2024-01-30T15:57:11;10.70;99.90
7720;DHT22;3902;49.474;8.616;2024-01-30T15:59:37;10.70;99.90
7720;DHT22;3902;49.474;8.616;2024-01-30T16:02:03;10.60;99.90
7720;DHT22;3902;49.474;8.616;2024-01-30T16:04:28;10.70;99.90
7720;DHT22;3902;49.474;8.616;2024-01-30T16:06:54;10.60;99.90